sensor_id;sensor_type;location;lat;lon;timestamp;P1;durP1;ratioP1;P2;durP2;ratioP2
24249;SDS011;12379;49.820;8.648;2023-05-16T00:01:39;2.43;;;2.27;;
24249;SDS011;12379;49.820;8.648;2023-05-16T00:04:05;3.43;;;1.43;;
24249;SDS011;12379;49.820;8.648;2023-05-16T00:06:31;4.10;;;3.73;;
24249;SDS011;12379;49.820;8.648;2023-05-16T00:08:57;7.53;;;4.70;;
24249;SDS011;12379;49.820;8.648;2023-05-16T00:11:23;1.83;;;1.73;;
24249;SDS011;12379;49.820;8.648;2023-05-16T00:13:48;5.67;;;3.63;;
24249;SDS011;12379;49.820;8.648;2023-05-16T00:16:15;8.13;;;3.87;;
24249;SDS011;12379;49.820;8.648;2023-05-16T00:18:40;3.77;;;2.97;;
24249;SDS011;12379;49.820;8.648;2023-05-16T00:21:09;2.53;;;1.97;;
24249;SDS011;12379;49.820;8.648;2023-05-16T00:23:35;3.03;;;2.83;;
24249;SDS011;12379;49.820;8.648;2023-05-16T00:26:00;3.07;;;2.40;;
24249;SDS011;12379;49.820;8.648;2023-05-16T00:28:26;11.23;;;2.50;;
24249;SDS011;12379;49.820;8.648;2023-05-16T00:30:51;4.67;;;2.63;;
24249;SDS011;12379;49.820;8.648;2023-05-16T00:33:17;4.40;;;2.63;;
24249;SDS011;12379;49.820;8.648;2023-05-16T00:35:43;3.27;;;3.00;;
24249;SDS011;12379;49.820;8.648;2023-05-16T00:38:08;3.43;;;2.57;;
24249;SDS011;12379;49.820;8.648;2023-05-16T00:40:34;5.00;;;3.13;;
24249;SDS011;12379;49.820;8.648;2023-05-16T00:43:00;2.90;;;2.70;;
24249;SDS011;12379;49.820;8.648;2023-05-16T00:45:25;3.60;;;2.83;;
24249;SDS011;12379;49.820;8.648;2023-05-16T00:47:51;6.40;;;4.30;;
24249;SDS011;12379;49.820;8.648;2023-05-16T00:50:16;4.07;;;3.77;;
24249;SDS011;12379;49.820;8.648;2023-05-16T00:52:42;4.50;;;2.97;;
24249;SDS011;12379;49.820;8.648;2023-05-16T00:55:08;9.50;;;2.80;;
24249;SDS011;12379;49.820;8.648;2023-05-16T00:57:35;7.53;;;3.20;;
24249;SDS011;12379;49.820;8.648;2023-05-16T01:00:04;3.63;;;3.33;;
24249;SDS011;12379;49.820;8.648;2023-05-16T01:02:31;6.37;;;3.50;;
24249;SDS011;12379;49.820;8.648;2023-05-16T01:04:58;3.80;;;2.60;;
24249;SDS011;12379;49.820;8.648;2023-05-16T01:07:24;5.20;;;2.87;;
24249;SDS011;12379;49.820;8.648;2023-05-16T01:09:50;3.57;;;3.20;;
24249;SDS011;12379;49.820;8.648;2023-05-16T01:15:45;1.67;;;1.57;;
24249;SDS011;12379;49.820;8.648;2023-05-16T01:20:58;7.13;;;2.50;;
24249;SDS011;12379;49.820;8.648;2023-05-16T01:28:46;4.90;;;3.50;;
24249;SDS011;12379;49.820;8.648;2023-05-16T01:31:12;5.40;;;2.87;;
24249;SDS011;12379;49.820;8.648;2023-05-16T01:33:38;7.47;;;4.20;;
24249;SDS011;12379;49.820;8.648;2023-05-16T01:39:11;2.67;;;2.53;;
24249;SDS011;12379;49.820;8.648;2023-05-16T01:41:46;6.37;;;2.97;;
24249;SDS011;12379;49.820;8.648;2023-05-16T01:47:24;5.80;;;3.27;;
24249;SDS011;12379;49.820;8.648;2023-05-16T01:50:15;2.53;;;2.07;;
24249;SDS011;12379;49.820;8.648;2023-05-16T01:55:28;7.30;;;3.97;;
24249;SDS011;12379;49.820;8.648;2023-05-16T01:58:15;2.57;;;2.37;;
24249;SDS011;12379;49.820;8.648;2023-05-16T02:00:44;3.10;;;2.70;;
24249;SDS011;12379;49.820;8.648;2023-05-16T02:03:09;8.33;;;3.40;;
24249;SDS011;12379;49.820;8.648;2023-05-16T02:05:35;3.10;;;2.47;;
24249;SDS011;12379;49.820;8.648;2023-05-16T02:08:00;2.77;;;2.67;;
24249;SDS011;12379;49.820;8.648;2023-05-16T02:10:26;3.50;;;3.20;;
24249;SDS011;12379;49.820;8.648;2023-05-16T02:12:52;3.17;;;2.87;;
24249;SDS011;12379;49.820;8.648;2023-05-16T02:15:18;8.97;;;3.30;;
24249;SDS011;12379;49.820;8.648;2023-05-16T02:17:44;5.90;;;3.10;;
24249;SDS011;12379;49.820;8.648;2023-05-16T02:20:10;6.60;;;4.30;;
24249;SDS011;12379;49.820;8.648;2023-05-16T02:22:36;4.10;;;3.63;;
24249;SDS011;12379;49.820;8.648;2023-05-16T02:25:06;3.90;;;3.60;;
24249;SDS011;12379;49.820;8.648;2023-05-16T02:27:32;6.60;;;3.63;;
24249;SDS011;12379;49.820;8.648;2023-05-16T02:29:58;3.50;;;3.20;;
24249;SDS011;12379;49.820;8.648;2023-05-16T02:32:23;4.83;;;4.00;;
24249;SDS011;12379;49.820;8.648;2023-05-16T02:34:50;2.97;;;2.30;;
24249;SDS011;12379;49.820;8.648;2023-05-16T02:37:15;3.80;;;3.27;;
24249;SDS011;12379;49.820;8.648;2023-05-16T02:39:41;4.03;;;3.70;;
24249;SDS011;12379;49.820;8.648;2023-05-16T02:42:06;5.10;;;2.93;;
24249;SDS011;12379;49.820;8.648;2023-05-16T02:44:32;3.40;;;3.10;;
24249;SDS011;12379;49.820;8.648;2023-05-16T02:46:58;4.27;;;1.93;;
24249;SDS011;12379;49.820;8.648;2023-05-16T02:49:24;3.80;;;2.27;;
24249;SDS011;12379;49.820;8.648;2023-05-16T02:51:49;8.80;;;3.33;;
24249;SDS011;12379;49.820;8.648;2023-05-16T02:54:15;14.40;;;3.83;;
24249;SDS011;12379;49.820;8.648;2023-05-16T02:56:41;4.53;;;2.70;;
24249;SDS011;12379;49.820;8.648;2023-05-16T02:59:07;2.80;;;2.60;;
24249;SDS011;12379;49.820;8.648;2023-05-16T03:01:32;9.73;;;4.30;;
24249;SDS011;12379;49.820;8.648;2023-05-16T03:03:58;3.07;;;2.83;;
24249;SDS011;12379;49.820;8.648;2023-05-16T03:06:24;2.47;;;2.20;;
24249;SDS011;12379;49.820;8.648;2023-05-16T03:08:49;3.40;;;2.83;;
24249;SDS011;12379;49.820;8.648;2023-05-16T03:11:16;6.80;;;3.50;;
24249;SDS011;12379;49.820;8.648;2023-05-16T03:13:45;2.90;;;2.23;;
24249;SDS011;12379;49.820;8.648;2023-05-16T03:16:11;5.60;;;2.70;;
24249;SDS011;12379;49.820;8.648;2023-05-16T03:18:36;4.80;;;3.73;;
24249;SDS011;12379;49.820;8.648;2023-05-16T03:21:02;2.63;;;2.37;;
24249;SDS011;12379;49.820;8.648;2023-05-16T03:23:28;3.00;;;2.43;;
24249;SDS011;12379;49.820;8.648;2023-05-16T03:25:53;2.70;;;2.20;;
24249;SDS011;12379;49.820;8.648;2023-05-16T03:28:20;4.60;;;1.57;;
24249;SDS011;12379;49.820;8.648;2023-05-16T03:30:46;7.60;;;5.33;;
24249;SDS011;12379;49.820;8.648;2023-05-16T03:33:11;3.43;;;3.07;;
24249;SDS011;12379;49.820;8.648;2023-05-16T03:35:37;11.93;;;3.40;;
24249;SDS011;12379;49.820;8.648;2023-05-16T03:38:03;2.27;;;2.10;;
24249;SDS011;12379;49.820;8.648;2023-05-16T03:40:29;4.17;;;3.13;;
24249;SDS011;12379;49.820;8.648;2023-05-16T03:42:54;8.17;;;2.97;;
24249;SDS011;12379;49.820;8.648;2023-05-16T03:45:20;2.37;;;2.17;;
24249;SDS011;12379;49.820;8.648;2023-05-16T03:47:45;3.63;;;2.97;;
24249;SDS011;12379;49.820;8.648;2023-05-16T03:50:13;6.73;;;4.20;;
24249;SDS011;12379;49.820;8.648;2023-05-16T03:52:38;4.23;;;3.20;;
24249;SDS011;12379;49.820;8.648;2023-05-16T03:55:04;4.57;;;2.70;;
24249;SDS011;12379;49.820;8.648;2023-05-16T03:57:30;2.33;;;2.17;;
24249;SDS011;12379;49.820;8.648;2023-05-16T03:59:57;7.83;;;3.23;;
24249;SDS011;12379;49.820;8.648;2023-05-16T04:02:22;3.47;;;3.17;;
24249;SDS011;12379;49.820;8.648;2023-05-16T04:04:48;4.83;;;2.47;;
24249;SDS011;12379;49.820;8.648;2023-05-16T04:07:14;2.43;;;1.77;;
24249;SDS011;12379;49.820;8.648;2023-05-16T04:09:39;2.13;;;2.00;;
24249;SDS011;12379;49.820;8.648;2023-05-16T04:12:05;7.00;;;2.90;;
24249;SDS011;12379;49.820;8.648;2023-05-16T04:14:31;3.77;;;2.80;;
24249;SDS011;12379;49.820;8.648;2023-05-16T04:16:59;3.97;;;3.43;;
24249;SDS011;12379;49.820;8.648;2023-05-16T04:19:24;2.30;;;2.10;;
24249;SDS011;12379;49.820;8.648;2023-05-16T04:21:50;9.57;;;4.47;;
24249;SDS011;12379;49.820;8.648;2023-05-16T04:24:16;3.20;;;2.73;;
24249;SDS011;12379;49.820;8.648;2023-05-16T04:26:42;2.67;;;2.33;;
24249;SDS011;12379;49.820;8.648;2023-05-16T04:29:07;2.73;;;2.53;;
24249;SDS011;12379;49.820;8.648;2023-05-16T04:31:33;7.23;;;2.73;;
24249;SDS011;12379;49.820;8.648;2023-05-16T04:33:58;2.57;;;2.37;;
24249;SDS011;12379;49.820;8.648;2023-05-16T04:36:24;3.53;;;1.40;;
24249;SDS011;12379;49.820;8.648;2023-05-16T04:38:54;5.23;;;2.30;;
24249;SDS011;12379;49.820;8.648;2023-05-16T04:41:20;2.87;;;2.70;;
24249;SDS011;12379;49.820;8.648;2023-05-16T04:43:46;4.07;;;2.13;;
24249;SDS011;12379;49.820;8.648;2023-05-16T04:46:12;1.33;;;1.23;;
24249;SDS011;12379;49.820;8.648;2023-05-16T04:48:39;10.80;;;4.07;;
24249;SDS011;12379;49.820;8.648;2023-05-16T04:51:05;3.10;;;2.57;;
24249;SDS011;12379;49.820;8.648;2023-05-16T04:53:30;2.03;;;1.93;;
24249;SDS011;12379;49.820;8.648;2023-05-16T04:55:56;3.07;;;2.77;;
24249;SDS011;12379;49.820;8.648;2023-05-16T04:58:22;7.13;;;2.57;;
24249;SDS011;12379;49.820;8.648;2023-05-16T05:00:48;4.60;;;1.40;;
24249;SDS011;12379;49.820;8.648;2023-05-16T05:03:15;5.57;;;2.47;;
24249;SDS011;12379;49.820;8.648;2023-05-16T05:05:41;2.20;;;2.10;;
24249;SDS011;12379;49.820;8.648;2023-05-16T05:08:07;4.00;;;2.77;;
24249;SDS011;12379;49.820;8.648;2023-05-16T05:10:33;2.83;;;2.63;;
24249;SDS011;12379;49.820;8.648;2023-05-16T05:12:59;6.70;;;4.33;;
24249;SDS011;12379;49.820;8.648;2023-05-16T05:15:25;2.60;;;2.50;;
24249;SDS011;12379;49.820;8.648;2023-05-16T05:17:51;2.30;;;2.13;;
24249;SDS011;12379;49.820;8.648;2023-05-16T05:20:16;6.30;;;3.10;;
24249;SDS011;12379;49.820;8.648;2023-05-16T05:22:42;2.40;;;2.13;;
24249;SDS011;12379;49.820;8.648;2023-05-16T05:25:08;2.63;;;1.93;;
24249;SDS011;12379;49.820;8.648;2023-05-16T05:27:33;1.43;;;1.33;;
24249;SDS011;12379;49.820;8.648;2023-05-16T05:29:59;2.30;;;2.10;;
24249;SDS011;12379;49.820;8.648;2023-05-16T05:32:25;9.70;;;2.60;;
24249;SDS011;12379;49.820;8.648;2023-05-16T05:34:50;1.83;;;1.73;;
24249;SDS011;12379;49.820;8.648;2023-05-16T05:37:16;0.70;;;0.70;;
24249;SDS011;12379;49.820;8.648;2023-05-16T05:39:42;0.63;;;0.60;;
24249;SDS011;12379;49.820;8.648;2023-05-16T05:42:07;0.50;;;0.50;;
24249;SDS011;12379;49.820;8.648;2023-05-16T05:44:33;0.60;;;0.60;;
24249;SDS011;12379;49.820;8.648;2023-05-16T05:46:58;2.70;;;0.93;;
24249;SDS011;12379;49.820;8.648;2023-05-16T05:49:25;1.00;;;0.97;;
24249;SDS011;12379;49.820;8.648;2023-05-16T05:51:51;1.00;;;1.00;;
24249;SDS011;12379;49.820;8.648;2023-05-16T05:54:18;0.87;;;0.87;;
24249;SDS011;12379;49.820;8.648;2023-05-16T05:56:44;0.80;;;0.70;;
24249;SDS011;12379;49.820;8.648;2023-05-16T05:59:09;0.70;;;0.70;;
24249;SDS011;12379;49.820;8.648;2023-05-16T06:01:35;0.50;;;0.50;;
24249;SDS011;12379;49.820;8.648;2023-05-16T06:04:01;0.60;;;0.60;;
24249;SDS011;12379;49.820;8.648;2023-05-16T06:06:26;2.20;;;2.00;;
24249;SDS011;12379;49.820;8.648;2023-05-16T06:08:53;1.37;;;0.60;;
24249;SDS011;12379;49.820;8.648;2023-05-16T06:11:18;0.60;;;0.60;;
24249;SDS011;12379;49.820;8.648;2023-05-16T06:13:45;0.40;;;0.40;;
24249;SDS011;12379;49.820;8.648;2023-05-16T06:16:11;0.40;;;0.30;;
24249;SDS011;12379;49.820;8.648;2023-05-16T06:18:36;1.37;;;0.70;;
24249;SDS011;12379;49.820;8.648;2023-05-16T06:21:02;0.93;;;0.83;;
24249;SDS011;12379;49.820;8.648;2023-05-16T06:23:28;0.40;;;0.40;;
24249;SDS011;12379;49.820;8.648;2023-05-16T06:25:53;0.50;;;0.50;;
24249;SDS011;12379;49.820;8.648;2023-05-16T06:28:19;0.60;;;0.60;;
24249;SDS011;12379;49.820;8.648;2023-05-16T06:30:44;0.57;;;0.50;;
24249;SDS011;12379;49.820;8.648;2023-05-16T06:33:11;0.70;;;0.60;;
24249;SDS011;12379;49.820;8.648;2023-05-16T06:35:38;1.70;;;1.03;;
24249;SDS011;12379;49.820;8.648;2023-05-16T06:38:04;0.50;;;0.50;;
24249;SDS011;12379;49.820;8.648;2023-05-16T06:40:30;0.50;;;0.50;;
24249;SDS011;12379;49.820;8.648;2023-05-16T06:42:55;0.60;;;0.60;;
24249;SDS011;12379;49.820;8.648;2023-05-16T06:45:22;0.40;;;0.40;;
24249;SDS011;12379;49.820;8.648;2023-05-16T06:47:48;1.03;;;1.00;;
24249;SDS011;12379;49.820;8.648;2023-05-16T06:50:13;0.60;;;0.60;;
24249;SDS011;12379;49.820;8.648;2023-05-16T06:52:39;0.90;;;0.90;;
24249;SDS011;12379;49.820;8.648;2023-05-16T06:55:06;1.07;;;0.60;;
24249;SDS011;12379;49.820;8.648;2023-05-16T06:57:31;0.50;;;0.50;;
24249;SDS011;12379;49.820;8.648;2023-05-16T06:59:57;0.47;;;0.47;;
24249;SDS011;12379;49.820;8.648;2023-05-16T07:02:22;2.87;;;0.60;;
24249;SDS011;12379;49.820;8.648;2023-05-16T07:04:48;0.40;;;0.40;;
24249;SDS011;12379;49.820;8.648;2023-05-16T07:07:16;0.50;;;0.50;;
24249;SDS011;12379;49.820;8.648;2023-05-16T07:09:42;0.50;;;0.50;;
24249;SDS011;12379;49.820;8.648;2023-05-16T07:12:08;0.40;;;0.40;;
24249;SDS011;12379;49.820;8.648;2023-05-16T07:14:33;0.60;;;0.60;;
24249;SDS011;12379;49.820;8.648;2023-05-16T07:16:59;4.63;;;0.67;;
24249;SDS011;12379;49.820;8.648;2023-05-16T07:19:24;0.63;;;0.63;;
24249;SDS011;12379;49.820;8.648;2023-05-16T07:21:50;0.50;;;0.50;;
24249;SDS011;12379;49.820;8.648;2023-05-16T07:24:16;0.40;;;0.40;;
24249;SDS011;12379;49.820;8.648;2023-05-16T07:26:41;4.30;;;0.60;;
24249;SDS011;12379;49.820;8.648;2023-05-16T07:29:07;0.70;;;0.50;;
24249;SDS011;12379;49.820;8.648;2023-05-16T07:31:32;0.40;;;0.40;;
24249;SDS011;12379;49.820;8.648;2023-05-16T07:33:58;1.20;;;1.10;;
24249;SDS011;12379;49.820;8.648;2023-05-16T07:36:23;0.40;;;0.40;;
24249;SDS011;12379;49.820;8.648;2023-05-16T07:38:49;0.40;;;0.30;;
24249;SDS011;12379;49.820;8.648;2023-05-16T07:41:14;1.23;;;0.50;;
24249;SDS011;12379;49.820;8.648;2023-05-16T07:43:40;0.40;;;0.40;;
24249;SDS011;12379;49.820;8.648;2023-05-16T07:46:05;0.40;;;0.40;;
24249;SDS011;12379;49.820;8.648;2023-05-16T07:48:31;0.87;;;0.80;;
24249;SDS011;12379;49.820;8.648;2023-05-16T07:50:57;0.50;;;0.50;;
24249;SDS011;12379;49.820;8.648;2023-05-16T07:53:22;1.20;;;1.10;;
24249;SDS011;12379;49.820;8.648;2023-05-16T07:55:48;0.40;;;0.40;;
24249;SDS011;12379;49.820;8.648;2023-05-16T07:58:14;1.63;;;0.70;;
24249;SDS011;12379;49.820;8.648;2023-05-16T08:00:40;0.60;;;0.60;;
24249;SDS011;12379;49.820;8.648;2023-05-16T08:03:05;0.40;;;0.40;;
24249;SDS011;12379;49.820;8.648;2023-05-16T08:05:31;0.70;;;0.70;;
24249;SDS011;12379;49.820;8.648;2023-05-16T08:07:56;0.40;;;0.40;;
24249;SDS011;12379;49.820;8.648;2023-05-16T08:10:22;0.40;;;0.40;;
24249;SDS011;12379;49.820;8.648;2023-05-16T08:12:48;1.53;;;0.47;;
24249;SDS011;12379;49.820;8.648;2023-05-16T08:15:13;0.40;;;0.40;;
24249;SDS011;12379;49.820;8.648;2023-05-16T08:17:39;0.73;;;0.50;;
24249;SDS011;12379;49.820;8.648;2023-05-16T08:20:05;0.73;;;0.73;;
24249;SDS011;12379;49.820;8.648;2023-05-16T08:22:31;0.60;;;0.60;;
24249;SDS011;12379;49.820;8.648;2023-05-16T08:24:57;1.43;;;0.90;;
24249;SDS011;12379;49.820;8.648;2023-05-16T08:27:24;0.40;;;0.40;;
24249;SDS011;12379;49.820;8.648;2023-05-16T08:29:50;10.03;;;0.60;;
24249;SDS011;12379;49.820;8.648;2023-05-16T08:32:16;0.40;;;0.40;;
24249;SDS011;12379;49.820;8.648;2023-05-16T08:34:41;0.50;;;0.50;;
24249;SDS011;12379;49.820;8.648;2023-05-16T08:37:07;1.83;;;0.60;;
24249;SDS011;12379;49.820;8.648;2023-05-16T08:39:33;1.40;;;0.90;;
24249;SDS011;12379;49.820;8.648;2023-05-16T08:42:22;0.40;;;0.40;;
24249;SDS011;12379;49.820;8.648;2023-05-16T08:44:47;0.70;;;0.70;;
24249;SDS011;12379;49.820;8.648;2023-05-16T08:47:17;0.40;;;0.40;;
24249;SDS011;12379;49.820;8.648;2023-05-16T08:49:46;0.40;;;0.40;;
24249;SDS011;12379;49.820;8.648;2023-05-16T08:52:12;0.40;;;0.40;;
24249;SDS011;12379;49.820;8.648;2023-05-16T08:54:42;0.40;;;0.40;;
24249;SDS011;12379;49.820;8.648;2023-05-16T08:57:08;0.40;;;0.40;;
24249;SDS011;12379;49.820;8.648;2023-05-16T08:59:34;0.40;;;0.37;;
24249;SDS011;12379;49.820;8.648;2023-05-16T09:02:00;0.50;;;0.50;;
24249;SDS011;12379;49.820;8.648;2023-05-16T09:04:25;0.40;;;0.40;;
24249;SDS011;12379;49.820;8.648;2023-05-16T09:06:51;0.40;;;0.40;;
24249;SDS011;12379;49.820;8.648;2023-05-16T09:09:17;0.40;;;0.40;;
24249;SDS011;12379;49.820;8.648;2023-05-16T09:11:43;0.40;;;0.40;;
24249;SDS011;12379;49.820;8.648;2023-05-16T09:14:09;0.40;;;0.40;;
24249;SDS011;12379;49.820;8.648;2023-05-16T09:16:35;0.40;;;0.40;;
24249;SDS011;12379;49.820;8.648;2023-05-16T09:19:00;0.40;;;0.40;;
24249;SDS011;12379;49.820;8.648;2023-05-16T09:21:29;5.47;;;1.27;;
24249;SDS011;12379;49.820;8.648;2023-05-16T09:24:04;0.70;;;0.70;;
24249;SDS011;12379;49.820;8.648;2023-05-16T09:26:34;0.40;;;0.40;;
24249;SDS011;12379;49.820;8.648;2023-05-16T09:29:07;0.40;;;0.40;;
24249;SDS011;12379;49.820;8.648;2023-05-16T09:31:35;0.40;;;0.40;;
24249;SDS011;12379;49.820;8.648;2023-05-16T09:34:03;2.20;;;0.77;;
24249;SDS011;12379;49.820;8.648;2023-05-16T09:36:31;0.50;;;0.50;;
24249;SDS011;12379;49.820;8.648;2023-05-16T09:38:57;0.40;;;0.40;;
24249;SDS011;12379;49.820;8.648;2023-05-16T09:41:22;0.50;;;0.50;;
24249;SDS011;12379;49.820;8.648;2023-05-16T09:43:48;0.73;;;0.73;;
24249;SDS011;12379;49.820;8.648;2023-05-16T09:46:14;0.77;;;0.77;;
24249;SDS011;12379;49.820;8.648;2023-05-16T09:48:44;3.23;;;1.53;;
24249;SDS011;12379;49.820;8.648;2023-05-16T09:51:11;0.40;;;0.40;;
24249;SDS011;12379;49.820;8.648;2023-05-16T09:53:37;1.00;;;1.00;;
24249;SDS011;12379;49.820;8.648;2023-05-16T09:56:04;0.40;;;0.40;;
24249;SDS011;12379;49.820;8.648;2023-05-16T09:58:32;0.40;;;0.40;;
24249;SDS011;12379;49.820;8.648;2023-05-16T10:00:59;1.70;;;0.80;;
24249;SDS011;12379;49.820;8.648;2023-05-16T10:03:26;0.40;;;0.40;;
24249;SDS011;12379;49.820;8.648;2023-05-16T10:05:52;0.40;;;0.40;;
24249;SDS011;12379;49.820;8.648;2023-05-16T10:08:19;1.43;;;0.67;;
24249;SDS011;12379;49.820;8.648;2023-05-16T10:10:49;0.40;;;0.40;;
24249;SDS011;12379;49.820;8.648;2023-05-16T10:13:20;0.40;;;0.40;;
24249;SDS011;12379;49.820;8.648;2023-05-16T10:15:48;4.77;;;0.50;;
24249;SDS011;12379;49.820;8.648;2023-05-16T10:18:19;0.97;;;0.53;;
24249;SDS011;12379;49.820;8.648;2023-05-16T10:20:46;0.40;;;0.40;;
24249;SDS011;12379;49.820;8.648;2023-05-16T10:23:21;0.40;;;0.40;;
24249;SDS011;12379;49.820;8.648;2023-05-16T10:25:56;0.50;;;0.50;;
24249;SDS011;12379;49.820;8.648;2023-05-16T10:28:27;0.50;;;0.50;;
24249;SDS011;12379;49.820;8.648;2023-05-16T10:30:53;0.40;;;0.40;;
24249;SDS011;12379;49.820;8.648;2023-05-16T10:33:19;0.50;;;0.50;;
24249;SDS011;12379;49.820;8.648;2023-05-16T10:35:45;0.50;;;0.50;;
24249;SDS011;12379;49.820;8.648;2023-05-16T10:38:11;0.40;;;0.40;;
24249;SDS011;12379;49.820;8.648;2023-05-16T10:40:40;0.70;;;0.63;;
24249;SDS011;12379;49.820;8.648;2023-05-16T10:43:07;0.50;;;0.50;;
24249;SDS011;12379;49.820;8.648;2023-05-16T10:45:33;0.40;;;0.40;;
24249;SDS011;12379;49.820;8.648;2023-05-16T10:48:03;1.23;;;1.23;;
24249;SDS011;12379;49.820;8.648;2023-05-16T10:50:34;0.50;;;0.40;;
24249;SDS011;12379;49.820;8.648;2023-05-16T11:01:22;0.40;;;0.40;;
24249;SDS011;12379;49.820;8.648;2023-05-16T11:06:21;0.60;;;0.60;;
24249;SDS011;12379;49.820;8.648;2023-05-16T11:09:02;0.60;;;0.50;;
24249;SDS011;12379;49.820;8.648;2023-05-16T11:11:46;0.50;;;0.50;;
24249;SDS011;12379;49.820;8.648;2023-05-16T11:19:46;0.40;;;0.40;;
24249;SDS011;12379;49.820;8.648;2023-05-16T11:22:31;0.60;;;0.60;;
24249;SDS011;12379;49.820;8.648;2023-05-16T11:27:26;0.67;;;0.67;;
24249;SDS011;12379;49.820;8.648;2023-05-16T11:29:57;0.60;;;0.60;;
24249;SDS011;12379;49.820;8.648;2023-05-16T11:32:25;0.90;;;0.60;;
24249;SDS011;12379;49.820;8.648;2023-05-16T11:34:51;2.00;;;0.70;;
24249;SDS011;12379;49.820;8.648;2023-05-16T11:37:16;0.40;;;0.40;;
24249;SDS011;12379;49.820;8.648;2023-05-16T11:39:43;0.40;;;0.40;;
24249;SDS011;12379;49.820;8.648;2023-05-16T11:42:09;0.60;;;0.60;;
24249;SDS011;12379;49.820;8.648;2023-05-16T11:44:35;0.60;;;0.60;;
24249;SDS011;12379;49.820;8.648;2023-05-16T11:47:01;0.40;;;0.40;;
24249;SDS011;12379;49.820;8.648;2023-05-16T11:49:28;1.33;;;0.80;;
24249;SDS011;12379;49.820;8.648;2023-05-16T11:51:54;0.77;;;0.77;;
24249;SDS011;12379;49.820;8.648;2023-05-16T11:54:21;0.50;;;0.50;;
24249;SDS011;12379;49.820;8.648;2023-05-16T11:56:48;0.40;;;0.40;;
24249;SDS011;12379;49.820;8.648;2023-05-16T11:59:17;0.40;;;0.40;;
24249;SDS011;12379;49.820;8.648;2023-05-16T12:01:43;0.40;;;0.40;;
24249;SDS011;12379;49.820;8.648;2023-05-16T12:04:09;2.10;;;0.63;;
24249;SDS011;12379;49.820;8.648;2023-05-16T12:06:36;1.67;;;0.80;;
24249;SDS011;12379;49.820;8.648;2023-05-16T12:09:03;0.40;;;0.40;;
24249;SDS011;12379;49.820;8.648;2023-05-16T12:11:38;0.70;;;0.70;;
24249;SDS011;12379;49.820;8.648;2023-05-16T12:14:08;0.40;;;0.40;;
24249;SDS011;12379;49.820;8.648;2023-05-16T12:16:37;0.90;;;0.90;;
24249;SDS011;12379;49.820;8.648;2023-05-16T12:19:06;0.80;;;0.80;;
24249;SDS011;12379;49.820;8.648;2023-05-16T12:21:32;0.70;;;0.70;;
24249;SDS011;12379;49.820;8.648;2023-05-16T12:23:58;0.50;;;0.50;;
24249;SDS011;12379;49.820;8.648;2023-05-16T12:26:28;0.50;;;0.50;;
24249;SDS011;12379;49.820;8.648;2023-05-16T12:28:58;1.00;;;0.80;;
24249;SDS011;12379;49.820;8.648;2023-05-16T12:31:27;0.43;;;0.40;;
24249;SDS011;12379;49.820;8.648;2023-05-16T12:33:54;0.70;;;0.70;;
24249;SDS011;12379;49.820;8.648;2023-05-16T12:36:20;0.40;;;0.40;;
24249;SDS011;12379;49.820;8.648;2023-05-16T12:38:46;6.17;;;1.40;;
24249;SDS011;12379;49.820;8.648;2023-05-16T12:41:21;1.53;;;1.13;;
24249;SDS011;12379;49.820;8.648;2023-05-16T12:43:47;0.50;;;0.50;;
24249;SDS011;12379;49.820;8.648;2023-05-16T12:46:14;3.10;;;1.23;;
24249;SDS011;12379;49.820;8.648;2023-05-16T12:48:40;0.47;;;0.47;;
24249;SDS011;12379;49.820;8.648;2023-05-16T12:53:40;0.87;;;0.50;;
24249;SDS011;12379;49.820;8.648;2023-05-16T12:56:13;0.40;;;0.40;;
24249;SDS011;12379;49.820;8.648;2023-05-16T12:58:39;0.40;;;0.40;;
24249;SDS011;12379;49.820;8.648;2023-05-16T13:01:06;0.40;;;0.40;;
24249;SDS011;12379;49.820;8.648;2023-05-16T13:03:32;0.50;;;0.50;;
24249;SDS011;12379;49.820;8.648;2023-05-16T13:05:58;2.20;;;1.47;;
24249;SDS011;12379;49.820;8.648;2023-05-16T13:08:27;0.40;;;0.40;;
24249;SDS011;12379;49.820;8.648;2023-05-16T13:10:53;0.93;;;0.83;;
24249;SDS011;12379;49.820;8.648;2023-05-16T13:13:19;0.40;;;0.40;;
24249;SDS011;12379;49.820;8.648;2023-05-16T13:15:44;0.50;;;0.50;;
24249;SDS011;12379;49.820;8.648;2023-05-16T13:18:11;0.40;;;0.40;;
24249;SDS011;12379;49.820;8.648;2023-05-16T13:20:40;0.40;;;0.40;;
24249;SDS011;12379;49.820;8.648;2023-05-16T13:23:05;0.50;;;0.50;;
24249;SDS011;12379;49.820;8.648;2023-05-16T13:25:32;0.50;;;0.50;;
24249;SDS011;12379;49.820;8.648;2023-05-16T13:27:57;0.40;;;0.40;;
24249;SDS011;12379;49.820;8.648;2023-05-16T13:30:23;0.40;;;0.40;;
24249;SDS011;12379;49.820;8.648;2023-05-16T13:32:49;0.60;;;0.60;;
24249;SDS011;12379;49.820;8.648;2023-05-16T13:35:16;0.50;;;0.50;;
24249;SDS011;12379;49.820;8.648;2023-05-16T13:37:42;1.53;;;0.93;;
24249;SDS011;12379;49.820;8.648;2023-05-16T13:40:08;0.47;;;0.47;;
24249;SDS011;12379;49.820;8.648;2023-05-16T13:42:35;4.77;;;0.50;;
24249;SDS011;12379;49.820;8.648;2023-05-16T13:45:01;4.10;;;0.50;;
24249;SDS011;12379;49.820;8.648;2023-05-16T13:47:27;0.80;;;0.80;;
24249;SDS011;12379;49.820;8.648;2023-05-16T13:49:53;4.60;;;0.60;;
24249;SDS011;12379;49.820;8.648;2023-05-16T13:52:19;0.50;;;0.50;;
24249;SDS011;12379;49.820;8.648;2023-05-16T13:54:45;0.40;;;0.40;;
24249;SDS011;12379;49.820;8.648;2023-05-16T13:57:10;0.73;;;0.73;;
24249;SDS011;12379;49.820;8.648;2023-05-16T13:59:36;0.40;;;0.40;;
24249;SDS011;12379;49.820;8.648;2023-05-16T14:02:01;1.13;;;1.00;;
24249;SDS011;12379;49.820;8.648;2023-05-16T14:04:27;0.40;;;0.40;;
24249;SDS011;12379;49.820;8.648;2023-05-16T14:06:53;0.60;;;0.60;;
24249;SDS011;12379;49.820;8.648;2023-05-16T14:09:19;1.90;;;0.60;;
24249;SDS011;12379;49.820;8.648;2023-05-16T14:11:44;1.30;;;1.20;;
24249;SDS011;12379;49.820;8.648;2023-05-16T14:14:10;0.40;;;0.40;;
24249;SDS011;12379;49.820;8.648;2023-05-16T14:16:35;2.00;;;0.80;;
24249;SDS011;12379;49.820;8.648;2023-05-16T14:21:30;0.80;;;0.50;;
24249;SDS011;12379;49.820;8.648;2023-05-16T14:23:56;0.87;;;0.87;;
24249;SDS011;12379;49.820;8.648;2023-05-16T14:26:21;0.40;;;0.40;;
24249;SDS011;12379;49.820;8.648;2023-05-16T14:28:49;1.27;;;0.87;;
24249;SDS011;12379;49.820;8.648;2023-05-16T14:31:17;0.50;;;0.50;;
24249;SDS011;12379;49.820;8.648;2023-05-16T14:33:42;0.40;;;0.40;;
24249;SDS011;12379;49.820;8.648;2023-05-16T14:36:08;0.40;;;0.40;;
24249;SDS011;12379;49.820;8.648;2023-05-16T14:38:34;0.40;;;0.40;;
24249;SDS011;12379;49.820;8.648;2023-05-16T14:41:00;0.83;;;0.83;;
24249;SDS011;12379;49.820;8.648;2023-05-16T14:43:25;0.50;;;0.50;;
24249;SDS011;12379;49.820;8.648;2023-05-16T14:45:51;0.87;;;0.50;;
24249;SDS011;12379;49.820;8.648;2023-05-16T14:48:16;0.63;;;0.63;;
24249;SDS011;12379;49.820;8.648;2023-05-16T14:50:42;0.53;;;0.53;;
24249;SDS011;12379;49.820;8.648;2023-05-16T14:53:07;0.87;;;0.87;;
24249;SDS011;12379;49.820;8.648;2023-05-16T14:55:33;0.90;;;0.90;;
24249;SDS011;12379;49.820;8.648;2023-05-16T14:57:59;1.90;;;0.70;;
24249;SDS011;12379;49.820;8.648;2023-05-16T15:00:24;0.50;;;0.50;;
24249;SDS011;12379;49.820;8.648;2023-05-16T15:02:50;0.40;;;0.40;;
24249;SDS011;12379;49.820;8.648;2023-05-16T15:05:16;0.40;;;0.40;;
24249;SDS011;12379;49.820;8.648;2023-05-16T15:07:42;0.67;;;0.60;;
24249;SDS011;12379;49.820;8.648;2023-05-16T15:10:08;0.60;;;0.60;;
24249;SDS011;12379;49.820;8.648;2023-05-16T15:12:34;0.70;;;0.70;;
24249;SDS011;12379;49.820;8.648;2023-05-16T15:15:01;1.07;;;1.03;;
24249;SDS011;12379;49.820;8.648;2023-05-16T15:17:26;2.73;;;0.80;;
24249;SDS011;12379;49.820;8.648;2023-05-16T15:19:52;0.67;;;0.50;;
24249;SDS011;12379;49.820;8.648;2023-05-16T15:22:18;1.07;;;0.50;;
24249;SDS011;12379;49.820;8.648;2023-05-16T15:24:44;0.40;;;0.40;;
24249;SDS011;12379;49.820;8.648;2023-05-16T15:27:09;3.93;;;1.37;;
24249;SDS011;12379;49.820;8.648;2023-05-16T15:29:35;0.90;;;0.90;;